Time;durP1;ratioP1;P1;durP2;ratioP2;P2;SDS_P1;SDS_P2;PMS_P1;PMS_P2;Temp;Humidity;BMP_temperature;BMP_pressure;BME280_temperature;BME280_humidity;BME280_pressure;Samples;Min_cycle;Max_cycle;Signal;HPM_P1;HPM_P2
2022/06/29 00:01:58;;;;;;;1.00;1.00;;;;;;;;;;5057730;28;20227;-70
2022/06/29 00:04:45;;;;;;;0.83;0.83;;;;;;;;;;5057445;28;20351;-71
2022/06/29 00:07:34;;;;;;;1.10;1.10;;;;;;;;;;5054864;28;20251;-70
2022/06/29 00:10:21;;;;;;;1.23;1.13;;;;;;;;;;5058864;28;20290;-70
2022/06/29 00:13:08;;;;;;;1.20;1.20;;;;;;;;;;5056632;28;20269;-72
2022/06/29 00:15:55;;;;;;;1.37;0.90;;;;;;;;;;5052339;28;20297;-69
2022/06/29 00:18:42;;;;;;;0.90;0.90;;;;;;;;;;5056632;28;20585;-69
2022/06/29 00:21:29;;;;;;;0.80;0.80;;;;;;;;;;5058162;28;20286;-71
2022/06/29 00:24:18;;;;;;;1.20;0.93;;;;;;;;;;5059851;28;20209;-70
2022/06/29 00:27:05;;;;;;;1.20;1.10;;;;;;;;;;5056866;28;20212;-70
2022/06/29 00:29:53;;;;;;;2.10;1.00;;;;;;;;;;5062921;28;20209;-70
2022/06/29 00:32:39;;;;;;;0.90;0.90;;;;;;;;;;5064055;28;20311;-70
2022/06/29 00:35:26;;;;;;;0.90;0.90;;;;;;;;;;5054523;28;20214;-70
2022/06/29 00:38:14;;;;;;;1.70;0.90;;;;;;;;;;5060489;28;20591;-71
2022/06/29 00:41:02;;;;;;;0.90;0.90;;;;;;;;;;5057947;28;20216;-70
2022/06/29 00:43:49;;;;;;;1.00;1.00;;;;;;;;;;5064152;28;20258;-71
2022/06/29 00:46:36;;;;;;;1.00;1.00;;;;;;;;;;5064226;28;20678;-70
2022/06/29 00:49:25;;;;;;;1.57;0.90;;;;;;;;;;5062892;28;20230;-70
2022/06/29 00:52:15;;;;;;;0.87;0.87;;;;;;;;;;5059543;28;20235;-70
2022/06/29 00:55:05;;;;;;;1.00;1.00;;;;;;;;;;5054367;28;20233;-71
2022/06/29 00:57:55;;;;;;;0.90;0.90;;;;;;;;;;5061102;28;20694;-70
2022/06/29 01:00:44;;;;;;;1.00;1.00;;;;;;;;;;5056647;28;20300;-71
2022/06/29 01:03:33;;;;;;;1.30;0.80;;;;;;;;;;5065715;28;20219;-71
2022/06/29 01:06:20;;;;;;;0.97;0.97;;;;;;;;;;5062318;28;20204;-70
2022/06/29 01:09:08;;;;;;;0.80;0.80;;;;;;;;;;5057740;28;20246;-70
2022/06/29 01:11:55;;;;;;;2.73;1.00;;;;;;;;;;5060943;28;20831;-70
2022/06/29 01:14:44;;;;;;;1.00;1.00;;;;;;;;;;5055980;28;20352;-71
2022/06/29 01:17:31;;;;;;;1.07;1.07;;;;;;;;;;5060979;28;20431;-70
2022/06/29 01:20:18;;;;;;;1.10;1.00;;;;;;;;;;5060282;28;20213;-70
2022/06/29 01:23:07;;;;;;;0.87;0.87;;;;;;;;;;5060845;28;20467;-71
2022/06/29 01:25:54;;;;;;;0.90;0.90;;;;;;;;;;5067754;28;20215;-71
2022/06/29 01:28:44;;;;;;;0.97;0.97;;;;;;;;;;5062594;28;20198;-70
2022/06/29 01:31:31;;;;;;;0.80;0.80;;;;;;;;;;5058990;28;20215;-71
2022/06/29 01:34:18;;;;;;;0.93;0.93;;;;;;;;;;5059212;28;20211;-70
2022/06/29 01:37:06;;;;;;;1.23;1.13;;;;;;;;;;5059680;28;20275;-70
2022/06/29 01:39:54;;;;;;;0.90;0.90;;;;;;;;;;5057856;28;20204;-70
2022/06/29 01:42:41;;;;;;;1.00;1.00;;;;;;;;;;5058599;28;20731;-70
2022/06/29 01:45:28;;;;;;;1.00;1.00;;;;;;;;;;5057668;28;20203;-70
2022/06/29 01:48:16;;;;;;;0.90;0.90;;;;;;;;;;5055698;28;20198;-70
2022/06/29 01:51:04;;;;;;;1.30;1.30;;;;;;;;;;5066303;28;20220;-70
2022/06/29 01:53:51;;;;;;;1.30;1.20;;;;;;;;;;5066007;28;20231;-70
2022/06/29 01:56:39;;;;;;;0.97;0.97;;;;;;;;;;5061102;28;20295;-70
2022/06/29 01:59:26;;;;;;;0.90;0.90;;;;;;;;;;5059008;28;20200;-71
2022/06/29 02:02:13;;;;;;;1.00;1.00;;;;;;;;;;5061958;28;20218;-70
2022/06/29 02:05:00;;;;;;;1.10;1.10;;;;;;;;;;5055629;28;20209;-70
2022/06/29 02:07:47;;;;;;;1.10;1.00;;;;;;;;;;5060457;28;20251;-71
2022/06/29 02:10:34;;;;;;;0.90;0.90;;;;;;;;;;5061143;28;20241;-70
2022/06/29 02:13:23;;;;;;;1.20;1.20;;;;;;;;;;5055878;28;20238;-70
2022/06/29 02:16:10;;;;;;;1.93;1.40;;;;;;;;;;5062221;28;20207;-70
2022/06/29 02:18:57;;;;;;;1.40;1.40;;;;;;;;;;5056049;28;20227;-70
2022/06/29 02:21:44;;;;;;;1.43;1.43;;;;;;;;;;5060120;28;20205;-70
2022/06/29 02:24:31;;;;;;;1.47;1.10;;;;;;;;;;5061230;28;20204;-71
2022/06/29 02:27:19;;;;;;;1.00;1.00;;;;;;;;;;5056490;28;20289;-70
2022/06/29 02:30:09;;;;;;;1.37;1.20;;;;;;;;;;5064720;28;20216;-71
2022/06/29 02:36:00;;;;;;;3.13;1.80;;;;;;;;;;5058245;28;20619;-71
2022/06/29 02:38:47;;;;;;;1.23;1.13;;;;;;;;;;5057037;28;20272;-70
2022/06/29 02:41:34;;;;;;;1.20;1.20;;;;;;;;;;5057536;28;20366;-72
2022/06/29 02:44:21;;;;;;;1.40;1.40;;;;;;;;;;5061915;28;20204;-70
2022/06/29 02:47:10;;;;;;;1.40;1.40;;;;;;;;;;5059013;28;20693;-70
2022/06/29 02:49:57;;;;;;;1.47;1.40;;;;;;;;;;5058106;28;20757;-70
2022/06/29 02:52:44;;;;;;;1.40;1.40;;;;;;;;;;5052754;28;20230;-70
2022/06/29 02:55:31;;;;;;;1.40;1.30;;;;;;;;;;5059994;28;20283;-70
2022/06/29 02:58:18;;;;;;;1.50;1.40;;;;;;;;;;5052238;28;20199;-71
2022/06/29 03:01:05;;;;;;;1.97;1.20;;;;;;;;;;5060970;28;20295;-70
2022/06/29 03:03:54;;;;;;;1.50;1.40;;;;;;;;;;5060537;28;20207;-70
2022/06/29 03:06:41;;;;;;;1.40;1.40;;;;;;;;;;5060472;28;20201;-70
2022/06/29 03:09:28;;;;;;;1.60;1.50;;;;;;;;;;5062846;28;20572;-70
2022/06/29 03:12:15;;;;;;;1.47;1.47;;;;;;;;;;5062939;28;20230;-70
2022/06/29 03:15:02;;;;;;;1.60;1.60;;;;;;;;;;5059446;28;20683;-70
2022/06/29 03:17:50;;;;;;;1.80;1.70;;;;;;;;;;5056329;28;20254;-71
2022/06/29 03:20:38;;;;;;;1.70;1.60;;;;;;;;;;5057623;28;20216;-70
2022/06/29 03:23:25;;;;;;;1.27;1.27;;;;;;;;;;5064288;28;20679;-72
2022/06/29 03:26:13;;;;;;;1.60;1.50;;;;;;;;;;5058466;28;20233;-70
2022/06/29 03:29:00;;;;;;;1.40;1.40;;;;;;;;;;5056449;28;20218;-70
2022/06/29 03:31:47;;;;;;;1.40;1.40;;;;;;;;;;5051373;28;20699;-70
2022/06/29 03:34:34;;;;;;;1.50;1.40;;;;;;;;;;5058214;28;20211;-70
2022/06/29 03:37:22;;;;;;;1.70;1.60;;;;;;;;;;5064320;28;20215;-70
2022/06/29 03:40:11;;;;;;;1.50;1.50;;;;;;;;;;5058036;28;20217;-70
2022/06/29 03:42:58;;;;;;;1.40;1.40;;;;;;;;;;5058494;28;20202;-70
2022/06/29 03:45:45;;;;;;;1.97;1.87;;;;;;;;;;5060330;28;20222;-70
2022/06/29 03:48:32;;;;;;;1.40;1.40;;;;;;;;;;5060689;28;20208;-70
2022/06/29 03:51:19;;;;;;;1.27;1.27;;;;;;;;;;5057087;28;20213;-70
2022/06/29 03:54:07;;;;;;;1.33;1.33;;;;;;;;;;5059026;28;20236;-70
2022/06/29 03:56:54;;;;;;;1.60;1.60;;;;;;;;;;5056317;28;20206;-71
2022/06/29 03:59:41;;;;;;;1.23;1.23;;;;;;;;;;5058742;28;20233;-70
2022/06/29 04:02:28;;;;;;;1.30;1.30;;;;;;;;;;5061671;28;20229;-70
2022/06/29 04:05:15;;;;;;;1.87;1.40;;;;;;;;;;5055120;28;20728;-70
2022/06/29 04:08:02;;;;;;;1.60;1.50;;;;;;;;;;5057931;28;20241;-70
2022/06/29 04:10:50;;;;;;;1.67;1.60;;;;;;;;;;5053715;28;20452;-70
2022/06/29 04:13:37;;;;;;;1.33;1.23;;;;;;;;;;5059778;28;20702;-70
2022/06/29 04:16:24;;;;;;;1.53;1.50;;;;;;;;;;5055282;28;20210;-72
2022/06/29 04:19:12;;;;;;;1.27;1.27;;;;;;;;;;5058997;28;20222;-70
2022/06/29 04:21:59;;;;;;;1.20;1.20;;;;;;;;;;5059068;28;20210;-70
2022/06/29 04:24:46;;;;;;;1.42;1.33;;;;;;;;;;5054056;28;20332;-71
2022/06/29 04:27:34;;;;;;;1.20;1.20;;;;;;;;;;5055034;28;20721;-70
2022/06/29 04:30:22;;;;;;;1.17;1.17;;;;;;;;;;5061756;28;20676;-70
2022/06/29 04:33:09;;;;;;;1.20;1.20;;;;;;;;;;5058959;28;20233;-70
2022/06/29 04:35:56;;;;;;;1.20;1.20;;;;;;;;;;5055219;28;20203;-71
2022/06/29 04:38:43;;;;;;;1.80;1.42;;;;;;;;;;5058986;28;20217;-71
2022/06/29 04:41:30;;;;;;;1.30;1.30;;;;;;;;;;5059808;28;20241;-70
2022/06/29 04:44:18;;;;;;;1.10;1.10;;;;;;;;;;5060373;28;20274;-70
2022/06/29 04:47:05;;;;;;;1.20;1.20;;;;;;;;;;5059325;28;20294;-70
2022/06/29 04:49:52;;;;;;;1.15;1.15;;;;;;;;;;5058061;28;20264;-71
2022/06/29 04:52:39;;;;;;;1.00;1.00;;;;;;;;;;5060493;28;20751;-70
2022/06/29 04:55:29;;;;;;;1.02;1.02;;;;;;;;;;5062859;28;20754;-70
2022/06/29 04:58:16;;;;;;;1.45;1.20;;;;;;;;;;5062154;28;20703;-71
2022/06/29 05:01:04;;;;;;;1.10;1.10;;;;;;;;;;5061438;28;20226;-70
2022/06/29 05:03:53;;;;;;;1.30;1.30;;;;;;;;;;5055919;28;20207;-70
2022/06/29 05:06:39;;;;;;;1.10;1.10;;;;;;;;;;5058261;28;20206;-70
2022/06/29 05:09:26;;;;;;;1.02;1.02;;;;;;;;;;5057519;28;20226;-70
2022/06/29 05:12:13;;;;;;;1.08;1.08;;;;;;;;;;5064776;28;20289;-70
2022/06/29 05:15:00;;;;;;;1.10;1.10;;;;;;;;;;5057993;28;20211;-70
2022/06/29 05:17:48;;;;;;;1.08;1.08;;;;;;;;;;5055601;28;20670;-70
2022/06/29 05:20:36;;;;;;;1.13;1.13;;;;;;;;;;5064765;28;20218;-70
2022/06/29 05:23:23;;;;;;;0.90;0.90;;;;;;;;;;5060729;28;20211;-70
2022/06/29 05:26:09;;;;;;;1.20;1.20;;;;;;;;;;5060798;28;20210;-70
2022/06/29 05:28:56;;;;;;;1.40;1.40;;;;;;;;;;5056628;28;20215;-70
2022/06/29 05:31:43;;;;;;;1.13;1.13;;;;;;;;;;5059206;28;20220;-70
2022/06/29 05:34:32;;;;;;;0.90;0.90;;;;;;;;;;5061797;28;20260;-71
2022/06/29 05:37:19;;;;;;;0.90;0.90;;;;;;;;;;5061541;28;20214;-70
2022/06/29 05:40:07;;;;;;;1.10;1.10;;;;;;;;;;5063677;28;20255;-71
2022/06/29 05:42:54;;;;;;;1.08;1.08;;;;;;;;;;5063954;28;20200;-70
2022/06/29 05:45:41;;;;;;;1.15;1.15;;;;;;;;;;5061490;28;20223;-71
2022/06/29 05:48:28;;;;;;;0.90;0.90;;;;;;;;;;5064959;28;20248;-70
2022/06/29 05:51:16;;;;;;;1.00;1.00;;;;;;;;;;5062691;28;20349;-70
2022/06/29 05:54:04;;;;;;;1.30;1.30;;;;;;;;;;5059610;28;20259;-70
2022/06/29 05:56:51;;;;;;;1.10;1.10;;;;;;;;;;5055999;28;20199;-70
2022/06/29 05:59:38;;;;;;;1.20;1.20;;;;;;;;;;5064927;28;20222;-71
2022/06/29 06:02:24;;;;;;;1.20;1.20;;;;;;;;;;5056466;28;20239;-70
2022/06/29 06:05:11;;;;;;;1.20;1.10;;;;;;;;;;5063002;28;20694;-71
2022/06/29 06:08:00;;;;;;;1.00;1.00;;;;;;;;;;5061649;28;20704;-70
2022/06/29 06:10:47;;;;;;;0.98;0.98;;;;;;;;;;5058652;28;20336;-70
2022/06/29 06:13:34;;;;;;;0.85;0.85;;;;;;;;;;5061965;28;20234;-70
2022/06/29 06:16:21;;;;;;;0.80;0.80;;;;;;;;;;5059702;28;20219;-70
2022/06/29 06:19:07;;;;;;;0.88;0.88;;;;;;;;;;5055991;28;20289;-70
2022/06/29 06:21:54;;;;;;;0.93;0.93;;;;;;;;;;5058292;28;20208;-70
2022/06/29 06:24:43;;;;;;;1.10;1.10;;;;;;;;;;5055306;28;20215;-70
2022/06/29 06:27:30;;;;;;;1.00;1.00;;;;;;;;;;5057962;28;20670;-70
2022/06/29 06:30:17;;;;;;;1.13;1.13;;;;;;;;;;5060813;28;20200;-70
2022/06/29 06:33:04;;;;;;;0.77;0.77;;;;;;;;;;5057101;28;20284;-70
2022/06/29 06:35:52;;;;;;;0.95;0.95;;;;;;;;;;5051479;28;20218;-70
2022/06/29 06:38:39;;;;;;;0.90;0.90;;;;;;;;;;5054807;28;20202;-70
2022/06/29 06:41:27;;;;;;;1.15;1.15;;;;;;;;;;5063782;28;20685;-70
2022/06/29 06:44:14;;;;;;;0.80;0.80;;;;;;;;;;5062913;28;20736;-70
2022/06/29 06:47:01;;;;;;;0.88;0.88;;;;;;;;;;5063458;28;20207;-70
2022/06/29 06:49:48;;;;;;;1.02;1.02;;;;;;;;;;5059267;28;20324;-71
2022/06/29 06:52:35;;;;;;;1.00;1.00;;;;;;;;;;5057146;28;20212;-70
2022/06/29 06:55:22;;;;;;;2.55;0.75;;;;;;;;;;5056059;28;20203;-70
2022/06/29 06:58:11;;;;;;;0.70;0.70;;;;;;;;;;5062809;28;20212;-70
2022/06/29 07:00:58;;;;;;;0.82;0.82;;;;;;;;;;5053633;28;20206;-70
2022/06/29 07:03:45;;;;;;;0.90;0.90;;;;;;;;;;5058920;28;20223;-72
2022/06/29 07:06:32;;;;;;;0.75;0.75;;;;;;;;;;5054189;28;20604;-71
2022/06/29 07:09:19;;;;;;;0.70;0.70;;;;;;;;;;5058227;28;20223;-71
2022/06/29 07:12:07;;;;;;;0.90;0.90;;;;;;;;;;5052122;28;20203;-71
2022/06/29 07:14:55;;;;;;;0.80;0.80;;;;;;;;;;5054408;28;20243;-73
2022/06/29 07:17:43;;;;;;;0.70;0.70;;;;;;;;;;5055931;28;20242;-71
2022/06/29 07:20:30;;;;;;;0.60;0.60;;;;;;;;;;5060972;28;20219;-70
2022/06/29 07:23:18;;;;;;;0.52;0.52;;;;;;;;;;5062108;28;20247;-70
2022/06/29 07:26:05;;;;;;;0.60;0.60;;;;;;;;;;5055462;28;20207;-69
2022/06/29 07:28:52;;;;;;;0.80;0.80;;;;;;;;;;5059539;28;20206;-69
2022/06/29 07:31:41;;;;;;;0.60;0.60;;;;;;;;;;5063086;28;20581;-71
2022/06/29 07:34:28;;;;;;;0.70;0.70;;;;;;;;;;5061486;28;20265;-71
2022/06/29 07:37:15;;;;;;;0.60;0.60;;;;;;;;;;5060416;28;20217;-71
2022/06/29 07:40:02;;;;;;;0.70;0.70;;;;;;;;;;5063653;28;20280;-71
2022/06/29 07:42:49;;;;;;;1.23;0.52;;;;;;;;;;5054663;28;20206;-71
2022/06/29 07:45:36;;;;;;;0.70;0.70;;;;;;;;;;5055229;28;20203;-69
2022/06/29 07:48:25;;;;;;;0.55;0.55;;;;;;;;;;5059507;28;20199;-72
2022/06/29 07:51:12;;;;;;;0.60;0.60;;;;;;;;;;5055879;28;20294;-71
2022/06/29 07:53:58;;;;;;;0.63;0.63;;;;;;;;;;5059164;28;20670;-71
2022/06/29 07:56:46;;;;;;;0.70;0.70;;;;;;;;;;5051617;28;20218;-71
2022/06/29 07:59:33;;;;;;;0.80;0.80;;;;;;;;;;5052978;28;20263;-70
2022/06/29 08:02:20;;;;;;;0.60;0.60;;;;;;;;;;5056906;28;20602;-72
2022/06/29 08:05:09;;;;;;;0.70;0.70;;;;;;;;;;5059708;28;20203;-71
2022/06/29 08:07:56;;;;;;;0.50;0.50;;;;;;;;;;5059367;28;20235;-71
2022/06/29 08:10:43;;;;;;;0.50;0.50;;;;;;;;;;5060034;28;20202;-70
2022/06/29 08:13:30;;;;;;;0.70;0.70;;;;;;;;;;5062601;28;20210;-69
2022/06/29 08:16:17;;;;;;;0.80;0.80;;;;;;;;;;5059700;28;20221;-70
2022/06/29 08:19:04;;;;;;;0.70;0.70;;;;;;;;;;5055082;28;20194;-69
2022/06/29 08:21:52;;;;;;;0.70;0.70;;;;;;;;;;5058210;28;20701;-69
2022/06/29 08:24:39;;;;;;;0.90;0.90;;;;;;;;;;5053846;28;20217;-70
2022/06/29 08:27:27;;;;;;;0.70;0.70;;;;;;;;;;5054297;28;20206;-72
2022/06/29 08:30:14;;;;;;;0.70;0.70;;;;;;;;;;5055765;28;20214;-71
2022/06/29 08:33:01;;;;;;;0.65;0.65;;;;;;;;;;5061298;28;20459;-70
2022/06/29 08:35:49;;;;;;;0.80;0.80;;;;;;;;;;5053361;28;20223;-72
2022/06/29 08:38:37;;;;;;;0.68;0.68;;;;;;;;;;5051100;28;20596;-72
2022/06/29 08:41:26;;;;;;;0.90;0.90;;;;;;;;;;5053645;28;20570;-71
2022/06/29 08:44:13;;;;;;;0.77;0.77;;;;;;;;;;5052763;28;20207;-71
2022/06/29 08:47:01;;;;;;;0.82;0.82;;;;;;;;;;5064640;28;20220;-71
2022/06/29 08:49:48;;;;;;;0.60;0.60;;;;;;;;;;5062343;28;20203;-71
2022/06/29 08:52:37;;;;;;;1.00;0.95;;;;;;;;;;5058398;28;20208;-70
2022/06/29 08:55:26;;;;;;;0.80;0.80;;;;;;;;;;5057459;28;20258;-71
2022/06/29 08:58:16;;;;;;;1.27;0.90;;;;;;;;;;5059820;28;20669;-70
2022/06/29 09:01:03;;;;;;;0.95;0.95;;;;;;;;;;5053547;28;20241;-70
2022/06/29 09:03:50;;;;;;;0.65;0.65;;;;;;;;;;5055509;28;20227;-70
2022/06/29 09:06:37;;;;;;;0.50;0.50;;;;;;;;;;5058187;28;20207;-70
2022/06/29 09:09:25;;;;;;;0.80;0.80;;;;;;;;;;5057269;28;20209;-70
2022/06/29 09:12:18;;;;;;;0.80;0.80;;;;;;;;;;5056348;28;20204;-71
2022/06/29 09:15:08;;;;;;;0.90;0.90;;;;;;;;;;5055480;28;20220;-70
2022/06/29 09:17:55;;;;;;;0.70;0.70;;;;;;;;;;5057937;28;20274;-69
2022/06/29 09:20:43;;;;;;;0.80;0.80;;;;;;;;;;5054504;28;20210;-70
2022/06/29 09:23:30;;;;;;;0.70;0.70;;;;;;;;;;5057652;28;20573;-70
2022/06/29 09:26:17;;;;;;;0.80;0.80;;;;;;;;;;5059232;28;20211;-70
2022/06/29 09:29:19;;;;;;;0.60;0.60;;;;;;;;;;5060571;28;20200;-70
2022/06/29 09:32:12;;;;;;;0.80;0.80;;;;;;;;;;5055749;28;20206;-70
2022/06/29 09:34:59;;;;;;;0.80;0.80;;;;;;;;;;5058746;28;20220;-70
2022/06/29 09:37:46;;;;;;;0.60;0.60;;;;;;;;;;5060604;28;20819;-71
2022/06/29 09:40:33;;;;;;;0.98;0.98;;;;;;;;;;5062701;28;20219;-70
2022/06/29 09:43:20;;;;;;;0.95;0.80;;;;;;;;;;5062866;28;20203;-70
2022/06/29 09:46:10;;;;;;;0.70;0.70;;;;;;;;;;5060305;28;20242;-71
2022/06/29 09:48:57;;;;;;;0.63;0.63;;;;;;;;;;5057062;28;20571;-70
2022/06/29 09:51:46;;;;;;;1.55;0.60;;;;;;;;;;5058431;28;20241;-70
2022/06/29 09:54:37;;;;;;;1.00;0.85;;;;;;;;;;5058016;28;20284;-70
2022/06/29 09:57:26;;;;;;;0.82;0.82;;;;;;;;;;5060309;28;20203;-70
2022/06/29 10:03:21;;;;;;;0.70;0.70;;;;;;;;;;5061910;28;20219;-71
2022/06/29 10:06:10;;;;;;;0.70;0.68;;;;;;;;;;5057350;28;20208;-70
2022/06/29 10:08:59;;;;;;;0.70;0.70;;;;;;;;;;5057063;28;20597;-70
2022/06/29 10:15:14;;;;;;;0.80;0.80;;;;;;;;;;5058138;28;20234;-69
2022/06/29 10:18:17;;;;;;;0.70;0.70;;;;;;;;;;5055767;28;20203;-71
2022/06/29 10:21:13;;;;;;;0.40;0.40;;;;;;;;;;5058908;28;20202;-69
2022/06/29 10:24:01;;;;;;;0.70;0.70;;;;;;;;;;5056588;28;20208;-69
2022/06/29 10:26:49;;;;;;;0.70;0.70;;;;;;;;;;5059854;28;20203;-70
2022/06/29 10:29:36;;;;;;;0.88;0.88;;;;;;;;;;5063682;28;20204;-70
2022/06/29 10:32:23;;;;;;;0.80;0.80;;;;;;;;;;5061528;28;20199;-70
2022/06/29 10:35:11;;;;;;;0.70;0.70;;;;;;;;;;5055982;28;20227;-69
2022/06/29 10:37:59;;;;;;;0.70;0.70;;;;;;;;;;5058393;28;20212;-69
2022/06/29 10:41:07;;;;;;;0.85;0.60;;;;;;;;;;5059830;28;20242;-70
2022/06/29 10:43:53;;;;;;;0.75;0.75;;;;;;;;;;5062410;28;20219;-69
2022/06/29 10:46:57;;;;;;;0.80;0.80;;;;;;;;;;5057204;28;20204;-69
2022/06/29 10:49:44;;;;;;;0.45;0.45;;;;;;;;;;5059964;28;20209;-69
2022/06/29 10:52:32;;;;;;;0.55;0.55;;;;;;;;;;5059602;28;20212;-69
2022/06/29 10:55:22;;;;;;;0.75;0.75;;;;;;;;;;5058634;28;20667;-70
2022/06/29 10:58:09;;;;;;;1.00;0.75;;;;;;;;;;5056366;28;20285;-70
2022/06/29 11:00:57;;;;;;;0.60;0.60;;;;;;;;;;5059692;28;20345;-70
2022/06/29 11:03:44;;;;;;;0.50;0.50;;;;;;;;;;5055036;28;20590;-70
2022/06/29 11:12:52;;;;;;;0.80;0.80;;;;;;;;;;5061157;28;20222;-70
2022/06/29 11:15:42;;;;;;;0.60;0.60;;;;;;;;;;5055253;28;20232;-69
2022/06/29 11:18:31;;;;;;;0.52;0.52;;;;;;;;;;5059382;28;20263;-69
2022/06/29 11:21:18;;;;;;;0.70;0.70;;;;;;;;;;5055574;28;20199;-69
2022/06/29 11:24:06;;;;;;;0.52;0.52;;;;;;;;;;5058522;28;20199;-70
2022/06/29 11:26:53;;;;;;;0.60;0.60;;;;;;;;;;5062576;28;20710;-70
2022/06/29 11:29:43;;;;;;;0.60;0.60;;;;;;;;;;5056218;28;20679;-70
2022/06/29 11:32:34;;;;;;;0.60;0.60;;;;;;;;;;5062325;28;20249;-70
2022/06/29 11:35:23;;;;;;;0.50;0.50;;;;;;;;;;5055522;28;20688;-69
2022/06/29 11:38:11;;;;;;;0.40;0.40;;;;;;;;;;5059789;28;20204;-70
2022/06/29 11:40:58;;;;;;;0.50;0.50;;;;;;;;;;5053365;28;20279;-69
2022/06/29 11:43:46;;;;;;;0.63;0.63;;;;;;;;;;5054408;28;20273;-69
2022/06/29 11:46:36;;;;;;;0.52;0.52;;;;;;;;;;5060262;28;20203;-69
2022/06/29 11:49:38;;;;;;;0.60;0.60;;;;;;;;;;5059870;28;20282;-70
2022/06/29 11:52:34;;;;;;;0.60;0.60;;;;;;;;;;5055940;28;20211;-69
2022/06/29 11:55:40;;;;;;;0.70;0.70;;;;;;;;;;5057009;28;20820;-70
2022/06/29 11:58:27;;;;;;;0.80;0.50;;;;;;;;;;5063075;28;20210;-70
2022/06/29 12:01:16;;;;;;;0.63;0.63;;;;;;;;;;5055922;28;20627;-68
2022/06/29 12:04:04;;;;;;;0.50;0.50;;;;;;;;;;5065376;28;20207;-69
2022/06/29 12:07:02;;;;;;;0.47;0.47;;;;;;;;;;5054341;28;20207;-69
2022/06/29 12:09:49;;;;;;;0.60;0.60;;;;;;;;;;5059145;28;20204;-70
2022/06/29 12:12:38;;;;;;;0.63;0.63;;;;;;;;;;5056356;28;20660;-69
2022/06/29 12:15:25;;;;;;;0.40;0.40;;;;;;;;;;5061207;28;20572;-69
2022/06/29 12:18:13;;;;;;;0.40;0.40;;;;;;;;;;5055529;28;20210;-69
2022/06/29 12:21:01;;;;;;;0.52;0.52;;;;;;;;;;5056033;28;20215;-68
2022/06/29 12:23:49;;;;;;;0.70;0.70;;;;;;;;;;5067131;28;20208;-69
2022/06/29 12:26:36;;;;;;;0.57;0.57;;;;;;;;;;5065441;28;20324;-71
2022/06/29 12:29:23;;;;;;;0.70;0.70;;;;;;;;;;5061298;28;20687;-69
2022/06/29 12:32:10;;;;;;;0.40;0.40;;;;;;;;;;5062006;28;20282;-69
2022/06/29 12:34:57;;;;;;;0.57;0.57;;;;;;;;;;5060640;28;20242;-69
2022/06/29 12:37:45;;;;;;;1.23;0.40;;;;;;;;;;5060442;28;20694;-69
2022/06/29 12:40:32;;;;;;;0.40;0.40;;;;;;;;;;5063864;28;20693;-70
2022/06/29 12:43:19;;;;;;;0.50;0.50;;;;;;;;;;5057587;28;20215;-70
2022/06/29 12:46:07;;;;;;;0.60;0.60;;;;;;;;;;5060191;28;20199;-70
2022/06/29 12:48:54;;;;;;;0.70;0.70;;;;;;;;;;5063421;28;20203;-70
2022/06/29 12:51:42;;;;;;;0.60;0.60;;;;;;;;;;5065756;28;20195;-70
2022/06/29 12:54:30;;;;;;;0.40;0.40;;;;;;;;;;5054646;28;20212;-70
2022/06/29 12:57:17;;;;;;;0.65;0.47;;;;;;;;;;5060791;28;20208;-69
2022/06/29 13:00:05;;;;;;;0.38;0.38;;;;;;;;;;5059476;28;20219;-69
2022/06/29 13:02:52;;;;;;;0.50;0.50;;;;;;;;;;5061080;28;20223;-69
2022/06/29 13:05:39;;;;;;;0.50;0.50;;;;;;;;;;5059154;28;20196;-71
2022/06/29 13:08:26;;;;;;;0.70;0.60;;;;;;;;;;5063083;28;20239;-70
2022/06/29 13:11:16;;;;;;;0.47;0.47;;;;;;;;;;5060237;28;20219;-71
2022/06/29 13:14:03;;;;;;;0.40;0.40;;;;;;;;;;5062777;28;20230;-69
2022/06/29 13:16:50;;;;;;;0.60;0.60;;;;;;;;;;5061309;28;20231;-67
2022/06/29 13:19:37;;;;;;;0.43;0.43;;;;;;;;;;5059798;28;20204;-71
2022/06/29 13:22:24;;;;;;;0.55;0.43;;;;;;;;;;5060112;28;20199;-71
2022/06/29 13:25:11;;;;;;;0.50;0.50;;;;;;;;;;5059290;28;20279;-70
2022/06/29 13:28:00;;;;;;;0.50;0.50;;;;;;;;;;5063696;28;20203;-71
2022/06/29 13:30:47;;;;;;;0.50;0.50;;;;;;;;;;5058495;28;20215;-71
2022/06/29 13:33:33;;;;;;;3.83;0.60;;;;;;;;;;5062964;28;20233;-70
2022/06/29 13:36:20;;;;;;;0.40;0.40;;;;;;;;;;5057883;28;20223;-70
2022/06/29 13:39:07;;;;;;;0.50;0.50;;;;;;;;;;5065077;28;20220;-71
2022/06/29 13:41:54;;;;;;;1.17;0.63;;;;;;;;;;5068061;28;20655;-70
2022/06/29 13:44:43;;;;;;;0.65;0.65;;;;;;;;;;5057310;28;20252;-71
2022/06/29 13:47:30;;;;;;;0.57;0.57;;;;;;;;;;5062105;28;20203;-70
2022/06/29 13:50:17;;;;;;;0.80;0.80;;;;;;;;;;5060416;28;20291;-70
2022/06/29 13:53:04;;;;;;;0.43;0.43;;;;;;;;;;5065012;28;20203;-71
2022/06/29 13:55:51;;;;;;;0.50;0.50;;;;;;;;;;5057755;28;20651;-70
2022/06/29 13:58:41;;;;;;;0.60;0.60;;;;;;;;;;5059171;28;20211;-70
2022/06/29 14:01:29;;;;;;;0.50;0.50;;;;;;;;;;5059961;28;20215;-70
2022/06/29 14:04:16;;;;;;;0.60;0.60;;;;;;;;;;5058262;28;20678;-70
2022/06/29 14:07:04;;;;;;;0.52;0.52;;;;;;;;;;5059738;28;20198;-70
2022/06/29 14:09:51;;;;;;;0.40;0.40;;;;;;;;;;5041003;28;20776;-70
2022/06/29 14:12:38;;;;;;;0.50;0.50;;;;;;;;;;5041445;28;20211;-70
2022/06/29 14:15:25;;;;;;;0.50;0.50;;;;;;;;;;5042970;28;20255;-70
2022/06/29 14:18:14;;;;;;;0.50;0.50;;;;;;;;;;5041217;28;20215;-71
2022/06/29 14:21:01;;;;;;;0.52;0.52;;;;;;;;;;5043842;28;20897;-71
2022/06/29 14:23:49;;;;;;;0.70;0.70;;;;;;;;;;5041194;28;20204;-71
2022/06/29 14:26:36;;;;;;;0.60;0.60;;;;;;;;;;5035600;28;20240;-70
2022/06/29 14:29:23;;;;;;;0.60;0.60;;;;;;;;;;5046860;28;20206;-70
2022/06/29 14:32:10;;;;;;;0.70;0.70;;;;;;;;;;5039003;28;20207;-70
2022/06/29 14:34:58;;;;;;;0.60;0.60;;;;;;;;;;5039607;28;20680;-70
2022/06/29 14:37:45;;;;;;;0.70;0.70;;;;;;;;;;5041104;28;20216;-70
2022/06/29 14:40:32;;;;;;;0.52;0.52;;;;;;;;;;5040136;28;20209;-71
2022/06/29 14:43:19;;;;;;;0.70;0.70;;;;;;;;;;5039933;28;20683;-70
2022/06/29 14:46:07;;;;;;;0.50;0.50;;;;;;;;;;5043101;28;20204;-70
2022/06/29 14:48:54;;;;;;;0.50;0.50;;;;;;;;;;5038947;28;20200;-70
2022/06/29 14:51:43;;;;;;;0.98;0.50;;;;;;;;;;5033614;28;20211;-70
2022/06/29 14:54:30;;;;;;;0.60;0.60;;;;;;;;;;5042255;28;20262;-70
2022/06/29 14:57:17;;;;;;;0.70;0.70;;;;;;;;;;5036424;28;20305;-70
2022/06/29 15:00:06;;;;;;;0.40;0.40;;;;;;;;;;5033613;28;20221;-70
2022/06/29 15:02:53;;;;;;;0.65;0.65;;;;;;;;;;5038492;28;20243;-70
2022/06/29 15:05:40;;;;;;;0.77;0.70;;;;;;;;;;5036930;28;20199;-69
2022/06/29 15:08:28;;;;;;;0.60;0.60;;;;;;;;;;5050408;28;20246;-70
2022/06/29 15:11:15;;;;;;;0.77;0.70;;;;;;;;;;5055848;28;20295;-70
2022/06/29 15:14:03;;;;;;;0.60;0.60;;;;;;;;;;5053496;28;20618;-70
2022/06/29 15:16:51;;;;;;;0.60;0.60;;;;;;;;;;5055201;28;20228;-70
2022/06/29 15:19:38;;;;;;;0.85;0.85;;;;;;;;;;5039012;28;20204;-69
2022/06/29 15:22:25;;;;;;;0.73;0.73;;;;;;;;;;5035282;28;20213;-71
2022/06/29 15:25:13;;;;;;;0.70;0.70;;;;;;;;;;5037963;28;20212;-71
2022/06/29 15:28:00;;;;;;;0.55;0.55;;;;;;;;;;5038580;28;20267;-71
2022/06/29 15:30:47;;;;;;;0.50;0.50;;;;;;;;;;5032885;28;20205;-72
2022/06/29 15:39:43;;;;;;;0.60;0.60;;;;;;;;;;5033148;28;20204;-72
2022/06/29 15:42:32;;;;;;;0.55;0.55;;;;;;;;;;5034280;28;20294;-72
2022/06/29 15:45:19;;;;;;;0.80;0.80;;;;;;;;;;5037792;28;20208;-69
2022/06/29 15:48:06;;;;;;;0.90;0.90;;;;;;;;;;5036386;28;20649;-72
2022/06/29 15:50:53;;;;;;;0.73;0.60;;;;;;;;;;5035809;28;20282;-71
2022/06/29 15:56:45;;;;;;;0.75;0.75;;;;;;;;;;5057972;28;20577;-71
2022/06/29 15:59:33;;;;;;;0.60;0.60;;;;;;;;;;5054409;28;20679;-71
2022/06/29 16:02:20;;;;;;;0.60;0.60;;;;;;;;;;5051165;28;20219;-72
2022/06/29 16:05:08;;;;;;;0.60;0.60;;;;;;;;;;5055844;28;20206;-72
2022/06/29 16:07:55;;;;;;;0.50;0.50;;;;;;;;;;5056728;28;20305;-72
2022/06/29 16:10:42;;;;;;;0.50;0.50;;;;;;;;;;5051002;28;20204;-69
2022/06/29 16:13:29;;;;;;;0.75;0.75;;;;;;;;;;5051735;28;20668;-72
2022/06/29 16:16:17;;;;;;;0.55;0.55;;;;;;;;;;5054773;28;20227;-69
2022/06/29 16:19:04;;;;;;;1.20;0.60;;;;;;;;;;5053644;28;20230;-71
2022/06/29 16:21:51;;;;;;;0.73;0.73;;;;;;;;;;5055588;28;20281;-71
2022/06/29 16:24:40;;;;;;;0.70;0.70;;;;;;;;;;5056044;28;20645;-71
2022/06/29 16:27:27;;;;;;;0.60;0.60;;;;;;;;;;5057470;28;20714;-70
2022/06/29 16:30:14;;;;;;;0.70;0.70;;;;;;;;;;5059203;28;20678;-69
2022/06/29 16:33:03;;;;;;;0.65;0.65;;;;;;;;;;5056901;28;20659;-70
2022/06/29 16:35:50;;;;;;;0.52;0.52;;;;;;;;;;5060212;28;20204;-72
2022/06/29 16:38:37;;;;;;;0.68;0.68;;;;;;;;;;5055590;28;20250;-71
2022/06/29 16:41:24;;;;;;;0.60;0.60;;;;;;;;;;5059627;28;20211;-72
2022/06/29 16:44:12;;;;;;;0.60;0.50;;;;;;;;;;5061571;28;20203;-72
2022/06/29 16:46:59;;;;;;;1.33;0.57;;;;;;;;;;5062594;28;20640;-72
2022/06/29 16:49:47;;;;;;;0.50;0.50;;;;;;;;;;5053248;28;21461;-72
2022/06/29 16:52:34;;;;;;;0.80;0.80;;;;;;;;;;5055774;28;20697;-72
2022/06/29 16:55:21;;;;;;;0.80;0.80;;;;;;;;;;5057518;28;20207;-71
2022/06/29 16:58:08;;;;;;;0.70;0.70;;;;;;;;;;5053212;28;20492;-72
2022/06/29 17:00:55;;;;;;;1.05;0.60;;;;;;;;;;5059735;28;20267;-72
2022/06/29 17:03:42;;;;;;;0.73;0.73;;;;;;;;;;5061679;28;20274;-72
2022/06/29 17:06:30;;;;;;;0.60;0.60;;;;;;;;;;5060088;28;20203;-72
2022/06/29 17:09:18;;;;;;;0.73;0.73;;;;;;;;;;5055631;28;20229;-71
2022/06/29 17:12:06;;;;;;;0.70;0.70;;;;;;;;;;5059796;28;20227;-72